LFBX 210400Z AUTO VRB02KT CAVOK M01/M02 Q1032

ElémentsDécodage
LFBX Station météo située sur l'aérodrome de PERIGUEUX Bassillac
210400Z émis le 21 du mois à 04h00 UTC
AUTO Bulletin édité par un automate
VRB02KT vent de direction variable, 02 noeuds
CAVOK Ceiling And Visibility OK
- Visibilité de 10 Km ou plus
- Pas de nuage au-dessous de 1500m ou au-dessous de l'altitude minimale du secteur la plus élevée (si>1500m) et absence de CB
- pas de temps présent significatif
M01/M02 température -01°C, point de rosée -02°C
 soit une humidité relative de 93%
Q1032 la pression au niveau de la mer (QNH) est de 1032 hPa